createdAt,value
2022-09-06T00:00:28.261Z,69.90
2022-09-06T00:02:54.779Z,69.70
2022-09-06T00:05:21.264Z,69.50
2022-09-06T00:07:47.700Z,69.20
2022-09-06T00:10:14.130Z,69.20
2022-09-06T00:12:40.583Z,70.30
2022-09-06T00:15:07.016Z,69.10
2022-09-06T00:17:33.457Z,69.40
2022-09-06T00:19:59.919Z,69.80
2022-09-06T00:22:26.395Z,69.90
2022-09-06T00:24:52.824Z,69.50
2022-09-06T00:27:19.297Z,69.30
2022-09-06T00:29:45.786Z,69.00
2022-09-06T00:32:12.254Z,69.50
2022-09-06T00:34:38.678Z,69.40
2022-09-06T00:37:05.130Z,70.60
2022-09-06T00:39:31.643Z,70.00
2022-09-06T00:41:58.141Z,70.50
2022-09-06T00:44:24.561Z,69.40
2022-09-06T00:46:51.020Z,69.20
2022-09-06T00:49:17.447Z,69.50
2022-09-06T00:51:43.899Z,69.70
2022-09-06T00:54:10.476Z,69.40
2022-09-06T00:56:36.928Z,69.20
2022-09-06T00:59:03.370Z,69.50
2022-09-06T01:01:29.956Z,69.60
2022-09-06T01:03:56.487Z,69.40
2022-09-06T01:06:22.924Z,69.70
2022-09-06T01:08:49.358Z,69.30
2022-09-06T01:11:15.799Z,69.70
2022-09-06T01:13:42.239Z,69.40
2022-09-06T01:16:08.729Z,69.40
2022-09-06T01:18:35.262Z,69.10
2022-09-06T01:21:01.693Z,69.20
2022-09-06T01:23:28.205Z,69.50
2022-09-06T01:25:54.638Z,69.50
2022-09-06T01:28:21.155Z,69.50
2022-09-06T01:30:47.709Z,69.40
2022-09-06T01:33:14.184Z,69.70
2022-09-06T01:35:40.620Z,69.30
2022-09-06T01:38:07.127Z,69.20
2022-09-06T01:40:33.584Z,69.30
2022-09-06T01:43:00.041Z,69.40
2022-09-06T01:45:26.724Z,69.20
2022-09-06T01:47:53.192Z,70.00
2022-09-06T01:50:19.715Z,69.70
2022-09-06T01:52:46.167Z,70.60
2022-09-06T01:55:12.602Z,70.10
2022-09-06T01:57:39.041Z,70.20
2022-09-06T02:00:07.640Z,69.40
2022-09-06T02:02:34.159Z,70.80
2022-09-06T02:05:00.651Z,69.70
2022-09-06T02:07:27.097Z,69.20
2022-09-06T02:09:53.542Z,69.50
2022-09-06T02:12:19.989Z,69.80
2022-09-06T02:14:46.486Z,69.60
2022-09-06T02:17:12.918Z,69.50
2022-09-06T02:19:39.353Z,69.50
2022-09-06T02:22:05.787Z,69.90
2022-09-06T02:24:32.221Z,69.30
2022-09-06T02:26:58.663Z,70.20
2022-09-06T02:29:25.107Z,69.60
2022-09-06T02:31:51.548Z,69.40
2022-09-06T02:34:17.987Z,69.60
2022-09-06T02:36:44.440Z,69.40
2022-09-06T02:39:10.876Z,69.40
2022-09-06T02:41:37.338Z,69.20
2022-09-06T02:44:03.785Z,69.50
2022-09-06T02:46:30.324Z,70.30
2022-09-06T02:48:59.822Z,69.50
2022-09-06T02:51:26.390Z,68.70
2022-09-06T02:53:52.821Z,69.70
2022-09-06T02:56:19.258Z,69.70
2022-09-06T02:58:45.707Z,69.30
2022-09-06T03:01:12.183Z,69.50
2022-09-06T03:03:38.652Z,69.50
2022-09-06T03:06:05.082Z,69.50
2022-09-06T03:08:31.614Z,70.00
2022-09-06T03:10:58.062Z,70.20
2022-09-06T03:13:24.503Z,69.70
2022-09-06T03:15:50.923Z,69.30
2022-09-06T03:18:17.366Z,69.80
2022-09-06T03:20:43.795Z,69.70
2022-09-06T03:23:10.259Z,69.60
2022-09-06T03:25:36.731Z,69.50
2022-09-06T03:28:03.196Z,70.00
2022-09-06T03:30:29.682Z,69.70
2022-09-06T03:32:56.158Z,70.50
2022-09-06T03:35:22.812Z,69.40
2022-09-06T03:37:49.248Z,69.20
2022-09-06T03:40:15.725Z,69.50
2022-09-06T03:42:42.216Z,69.90
2022-09-06T03:45:08.635Z,69.40
2022-09-06T03:47:35.080Z,69.30
2022-09-06T03:50:01.517Z,69.30
2022-09-06T03:52:27.958Z,69.80
2022-09-06T03:54:54.399Z,69.30
2022-09-06T03:57:20.842Z,69.80
2022-09-06T03:59:47.272Z,69.80
2022-09-06T04:02:13.770Z,70.20
2022-09-06T04:04:41.888Z,69.30
2022-09-06T04:07:08.456Z,70.80
2022-09-06T04:09:34.882Z,71.60
2022-09-06T04:12:01.359Z,70.00
2022-09-06T04:14:27.788Z,70.10
2022-09-06T04:16:54.274Z,70.60
2022-09-06T04:19:20.739Z,70.10
2022-09-06T04:21:47.202Z,69.30
2022-09-06T04:24:13.641Z,70.10
2022-09-06T04:26:40.087Z,69.40
2022-09-06T04:29:06.517Z,69.50
2022-09-06T04:31:32.986Z,70.60
2022-09-06T04:33:59.468Z,70.20
2022-09-06T04:36:25.890Z,70.20
2022-09-06T04:38:52.342Z,69.70
2022-09-06T04:41:18.764Z,69.60
2022-09-06T04:43:45.193Z,70.40
2022-09-06T04:46:11.662Z,69.50
2022-09-06T04:48:38.334Z,69.50
2022-09-06T04:51:04.758Z,69.10
2022-09-06T04:53:31.206Z,69.30
2022-09-06T04:55:57.648Z,69.50
2022-09-06T04:58:24.103Z,69.60
2022-09-06T05:00:50.674Z,69.20
2022-09-06T05:03:17.171Z,69.70
2022-09-06T05:05:43.602Z,69.30
2022-09-06T05:08:10.148Z,69.40
2022-09-06T05:10:36.584Z,69.40
2022-09-06T05:13:03.025Z,69.50
2022-09-06T05:15:29.506Z,69.10
2022-09-06T05:17:56.077Z,69.40
2022-09-06T05:20:22.536Z,69.70
2022-09-06T05:22:48.993Z,70.10
2022-09-06T05:25:15.431Z,69.40
2022-09-06T05:27:41.875Z,69.90
2022-09-06T05:30:08.299Z,68.90
2022-09-06T05:32:34.736Z,69.10
2022-09-06T05:35:01.185Z,69.10
2022-09-06T05:37:27.639Z,69.50
2022-09-06T05:39:54.115Z,69.80
2022-09-06T05:42:20.618Z,69.50
2022-09-06T05:44:47.058Z,69.30
2022-09-06T05:47:13.501Z,69.60
2022-09-06T05:49:39.941Z,69.30
2022-09-06T05:52:06.403Z,69.50
2022-09-06T05:54:32.871Z,69.30
2022-09-06T05:56:59.317Z,69.30
2022-09-06T05:59:25.748Z,70.00
2022-09-06T06:01:52.253Z,69.70
2022-09-06T06:04:18.770Z,70.70
2022-09-06T06:06:45.199Z,69.20
2022-09-06T06:09:11.674Z,69.30
2022-09-06T06:11:38.166Z,69.30
2022-09-06T06:14:04.630Z,69.80
2022-09-06T06:16:31.120Z,69.40
2022-09-06T06:18:57.631Z,69.60
2022-09-06T06:21:24.083Z,70.10
2022-09-06T06:23:50.574Z,70.90
2022-09-06T06:26:17.046Z,69.40
2022-09-06T06:28:43.779Z,69.30
2022-09-06T06:31:10.251Z,68.30
2022-09-06T06:33:36.751Z,69.30
2022-09-06T06:36:03.255Z,70.50
2022-09-06T06:38:29.798Z,70.70
2022-09-06T06:41:00.965Z,70.40
2022-09-06T06:43:29.711Z,69.70
2022-09-06T06:45:56.260Z,69.30
2022-09-06T06:48:22.806Z,70.00
2022-09-06T06:50:49.348Z,70.10
2022-09-06T06:53:15.872Z,69.70
2022-09-06T06:55:42.331Z,70.20
2022-09-06T06:58:08.778Z,70.40
2022-09-06T07:00:35.262Z,69.90
2022-09-06T07:03:01.765Z,69.70
2022-09-06T07:08:14.656Z,70.30
2022-09-06T07:10:41.148Z,70.10
2022-09-06T07:13:07.651Z,69.70
2022-09-06T07:15:34.098Z,69.60
2022-09-06T07:18:00.556Z,70.50
2022-09-06T07:20:27.069Z,69.60
2022-09-06T07:22:53.763Z,69.40
2022-09-06T07:25:21.533Z,70.20
2022-09-06T07:27:49.161Z,69.60
2022-09-06T07:30:16.326Z,71.40
2022-09-06T07:32:42.862Z,70.50
2022-09-06T07:35:09.318Z,69.90
2022-09-06T07:37:35.786Z,69.90
2022-09-06T07:40:02.279Z,70.00
2022-09-06T07:42:31.700Z,69.80
2022-09-06T07:45:00.566Z,70.20
2022-09-06T07:53:07.180Z,70.20
2022-09-06T07:55:34.753Z,69.20
2022-09-06T07:58:01.216Z,69.30
2022-09-06T08:00:27.658Z,69.20
2022-09-06T08:02:54.131Z,69.20
2022-09-06T08:10:53.420Z,69.00
2022-09-06T08:13:19.927Z,68.70
2022-09-06T08:15:46.385Z,69.30
2022-09-06T08:18:12.887Z,69.30
2022-09-06T08:20:39.382Z,69.20
2022-09-06T08:23:05.997Z,69.00
2022-09-06T08:25:32.505Z,69.10
2022-09-06T08:27:59.021Z,71.00
2022-09-06T08:30:25.447Z,69.40
2022-09-06T08:32:51.897Z,69.40
2022-09-06T08:35:18.318Z,69.20
2022-09-06T08:37:44.787Z,70.70
2022-09-06T08:40:11.304Z,69.60
2022-09-06T08:42:37.801Z,69.60
2022-09-06T08:45:04.229Z,69.30
2022-09-06T08:47:30.737Z,69.20
2022-09-06T08:49:57.229Z,69.40
2022-09-06T08:52:23.899Z,69.70
2022-09-06T08:54:50.315Z,69.30
2022-09-06T08:57:16.786Z,69.90
2022-09-06T08:59:43.214Z,69.20
2022-09-06T09:02:09.825Z,69.10
2022-09-06T09:04:36.354Z,69.60
2022-09-06T09:07:02.853Z,69.40
2022-09-06T09:09:29.292Z,69.30
2022-09-06T09:11:55.730Z,68.90
2022-09-06T09:14:22.165Z,69.00
2022-09-06T09:16:48.610Z,70.10
2022-09-06T09:19:15.056Z,69.00
2022-09-06T09:21:41.545Z,69.10
2022-09-06T09:24:07.971Z,69.00
2022-09-06T09:26:34.420Z,69.50
2022-09-06T09:29:00.905Z,69.40
2022-09-06T09:31:27.415Z,70.40
2022-09-06T09:33:53.926Z,70.50
2022-09-06T09:36:20.404Z,70.10
2022-09-06T09:38:46.888Z,70.60
2022-09-06T09:41:13.394Z,69.50
2022-09-06T09:43:39.863Z,69.50
2022-09-06T09:46:06.358Z,70.50
2022-09-06T09:48:32.860Z,70.30
2022-09-06T09:50:59.347Z,69.90
2022-09-06T09:53:25.834Z,70.10
2022-09-06T09:55:52.292Z,70.40
2022-09-06T09:58:18.792Z,69.40
2022-09-06T10:00:45.297Z,69.20
2022-09-06T10:03:11.875Z,70.70
2022-09-06T10:05:38.325Z,70.20
2022-09-06T10:08:04.772Z,71.30
2022-09-06T10:10:31.231Z,69.80
2022-09-06T10:12:57.698Z,69.70
2022-09-06T10:15:24.189Z,69.70
2022-09-06T10:17:50.679Z,70.00
2022-09-06T10:20:17.205Z,69.50
2022-09-06T10:22:43.674Z,70.10
2022-09-06T10:25:10.150Z,70.50
2022-09-06T10:27:42.520Z,70.00
2022-09-06T10:30:12.293Z,70.10
2022-09-06T10:32:38.866Z,71.50
2022-09-06T10:35:05.328Z,69.50
2022-09-06T10:37:31.804Z,70.00
2022-09-06T10:39:58.343Z,70.60
2022-09-06T10:42:24.823Z,69.70
2022-09-06T10:44:51.263Z,69.70
2022-09-06T10:47:17.731Z,69.30
2022-09-06T10:49:44.192Z,69.10
2022-09-06T10:52:10.641Z,71.10
2022-09-06T10:54:37.095Z,69.50
2022-09-06T10:57:03.668Z,70.40
2022-09-06T10:59:38.358Z,70.00
2022-09-06T11:02:05.534Z,69.40
2022-09-06T11:04:32.265Z,68.80
2022-09-06T11:06:58.903Z,69.50
2022-09-06T11:09:25.354Z,68.90
2022-09-06T11:11:51.823Z,68.80
2022-09-06T11:14:18.266Z,68.90
2022-09-06T11:16:44.725Z,69.30
2022-09-06T11:19:11.153Z,69.40
2022-09-06T11:21:37.609Z,69.30
2022-09-06T11:24:04.061Z,69.80
2022-09-06T11:26:30.518Z,70.70
2022-09-06T11:28:56.963Z,71.70
2022-09-06T11:34:09.846Z,70.00
2022-09-06T11:36:36.455Z,69.10
2022-09-06T11:39:02.898Z,69.30
2022-09-06T11:41:29.357Z,69.30
2022-09-06T11:43:55.797Z,69.70
2022-09-06T11:46:22.270Z,70.00
2022-09-06T11:48:48.770Z,70.30
2022-09-06T11:51:15.236Z,69.20
2022-09-06T11:53:41.695Z,69.50
2022-09-06T11:56:08.138Z,69.30
2022-09-06T11:58:34.624Z,70.00
2022-09-06T12:01:01.088Z,70.40
2022-09-06T12:06:13.992Z,69.70
2022-09-06T12:08:40.467Z,70.30
2022-09-06T12:11:06.943Z,69.70
2022-09-06T12:13:33.411Z,69.30
2022-09-06T12:15:59.947Z,69.60
2022-09-06T12:18:28.207Z,69.90
2022-09-06T12:20:54.785Z,70.30
2022-09-06T12:23:21.252Z,70.40
2022-09-06T12:25:47.690Z,69.00
2022-09-06T12:28:14.163Z,71.30
2022-09-06T12:30:40.598Z,70.20
2022-09-06T12:33:07.083Z,70.10
2022-09-06T12:38:20.031Z,70.80
2022-09-06T12:40:46.457Z,70.20
2022-09-06T12:43:12.892Z,70.60
2022-09-06T12:45:39.333Z,71.00
2022-09-06T12:48:05.800Z,70.70
2022-09-06T12:50:32.251Z,71.30
2022-09-06T12:52:58.695Z,71.30
2022-09-06T12:55:25.129Z,70.90
2022-09-06T12:57:51.583Z,70.60
2022-09-06T13:00:18.023Z,70.90
2022-09-06T13:02:44.550Z,70.60
2022-09-06T13:05:11.094Z,69.00
2022-09-06T13:07:37.533Z,69.20
2022-09-06T13:10:03.998Z,70.50
2022-09-06T13:12:30.450Z,68.90
2022-09-06T13:14:56.902Z,68.70
2022-09-06T13:17:23.371Z,69.40
2022-09-06T13:19:49.814Z,70.20
2022-09-06T13:22:16.280Z,70.30
2022-09-06T13:24:46.629Z,69.20
2022-09-06T13:27:13.745Z,69.80
2022-09-06T13:29:40.186Z,70.10
2022-09-06T13:32:06.615Z,70.50
2022-09-06T13:34:33.066Z,70.20
2022-09-06T13:36:59.506Z,69.70
2022-09-06T13:39:26.010Z,69.40
2022-09-06T13:41:52.483Z,69.50
2022-09-06T13:44:18.935Z,69.70
2022-09-06T13:46:45.435Z,70.50
2022-09-06T13:49:11.937Z,69.60
2022-09-06T13:51:38.365Z,69.90
2022-09-06T13:54:04.808Z,70.70
2022-09-06T13:56:31.247Z,70.20
2022-09-06T13:58:57.692Z,70.90
2022-09-06T14:01:24.147Z,70.70
2022-09-06T14:03:50.667Z,70.20
2022-09-06T14:06:17.125Z,70.20
2022-09-06T14:09:05.710Z,70.40
2022-09-06T14:11:30.011Z,70.40
2022-09-06T14:13:56.476Z,70.50
2022-09-06T14:16:22.984Z,70.60
2022-09-06T14:18:49.440Z,71.50
2022-09-06T14:21:15.881Z,71.30
2022-09-06T14:23:42.322Z,70.60
2022-09-06T14:26:08.758Z,70.10
2022-09-06T14:28:35.218Z,71.00
2022-09-06T14:31:01.682Z,70.90
2022-09-06T14:33:28.194Z,70.40
2022-09-06T14:35:54.643Z,72.50
2022-09-06T14:38:21.111Z,72.00
2022-09-06T14:40:47.557Z,71.90
2022-09-06T14:43:14.024Z,69.30
2022-09-06T14:45:40.528Z,70.90
2022-09-06T14:48:06.979Z,72.80
2022-09-06T14:50:33.415Z,70.60
2022-09-06T14:52:59.877Z,70.50
2022-09-06T14:55:26.307Z,70.20
2022-09-06T14:57:52.760Z,71.60
2022-09-06T15:00:19.178Z,71.00
2022-09-06T15:02:45.644Z,72.00
2022-09-06T15:05:12.134Z,70.60
2022-09-06T15:07:38.825Z,70.90
2022-09-06T15:10:05.323Z,71.00
2022-09-06T15:12:31.788Z,71.90
2022-09-06T15:14:58.226Z,71.10
2022-09-06T15:17:24.694Z,71.50
2022-09-06T15:19:51.119Z,71.50
2022-09-06T15:22:17.570Z,71.40
2022-09-06T15:24:44.020Z,71.10
2022-09-06T15:27:10.463Z,71.60
2022-09-06T15:29:36.889Z,72.00
2022-09-06T15:32:03.355Z,71.60
2022-09-06T15:34:29.779Z,71.60
2022-09-06T15:36:56.215Z,71.80
2022-09-06T15:39:22.638Z,71.60
2022-09-06T15:41:49.080Z,71.30
2022-09-06T15:44:15.545Z,71.70
2022-09-06T15:46:42.019Z,71.30
2022-09-06T15:49:08.470Z,72.00
2022-09-06T15:51:34.906Z,71.80
2022-09-06T15:54:01.342Z,71.90
2022-09-06T15:56:27.792Z,71.70
2022-09-06T15:58:54.248Z,71.60
2022-09-06T16:01:20.727Z,71.60
2022-09-06T16:03:47.203Z,71.90
2022-09-06T16:06:28.955Z,71.40
2022-09-06T16:08:55.481Z,70.80
2022-09-06T16:11:21.919Z,70.60
2022-09-06T16:13:48.378Z,70.70
2022-09-06T16:16:14.834Z,70.90
2022-09-06T16:18:41.313Z,70.60
2022-09-06T16:21:07.748Z,71.30
2022-09-06T16:23:34.269Z,71.00
2022-09-06T16:26:00.729Z,70.50
2022-09-06T16:28:27.362Z,71.00
2022-09-06T16:30:53.916Z,70.90
2022-09-06T16:33:20.439Z,70.60
2022-09-06T16:35:46.878Z,71.20
2022-09-06T16:38:13.344Z,71.40
2022-09-06T16:40:39.800Z,70.20
2022-09-06T16:43:06.281Z,71.70
2022-09-06T16:45:32.708Z,70.00
2022-09-06T16:47:59.170Z,70.20
2022-09-06T16:50:25.616Z,70.20
2022-09-06T16:52:52.094Z,70.60
2022-09-06T16:55:18.528Z,70.60
2022-09-06T16:57:44.975Z,69.90
2022-09-06T17:00:11.431Z,70.60
2022-09-06T17:02:38.015Z,69.70
2022-09-06T17:05:04.563Z,70.50
2022-09-06T17:07:30.998Z,69.60
2022-09-06T17:09:57.464Z,69.70
2022-09-06T17:12:23.901Z,69.80
2022-09-06T17:14:50.363Z,70.10
2022-09-06T17:17:17.845Z,69.70
2022-09-06T17:19:44.307Z,70.40
2022-09-06T17:22:10.737Z,70.00
2022-09-06T17:24:37.201Z,69.00
2022-09-06T17:27:03.705Z,69.30
2022-09-06T17:29:30.171Z,68.80
2022-09-06T17:31:56.609Z,70.40
2022-09-06T17:34:23.087Z,70.80
2022-09-06T17:36:49.535Z,69.60
2022-09-06T17:39:16.011Z,69.80
2022-09-06T17:41:42.445Z,70.00
2022-09-06T17:44:08.897Z,69.90
2022-09-06T17:46:35.334Z,70.10
2022-09-06T17:49:01.779Z,69.60
2022-09-06T17:51:28.206Z,69.90
2022-09-06T17:53:54.657Z,70.30
2022-09-06T17:56:21.089Z,69.50
2022-09-06T17:58:47.548Z,71.30
2022-09-06T18:01:14.075Z,70.10
2022-09-06T18:03:40.554Z,70.10
2022-09-06T18:06:06.994Z,70.00
2022-09-06T18:08:34.390Z,70.10
2022-09-06T18:11:00.818Z,70.20
2022-09-06T18:13:27.254Z,70.90
2022-09-06T18:15:53.682Z,70.40
2022-09-06T18:18:20.134Z,70.60
2022-09-06T18:20:46.561Z,70.30
2022-09-06T18:23:13.050Z,70.00
2022-09-06T18:25:39.477Z,70.30
2022-09-06T18:28:05.939Z,71.60
2022-09-06T18:30:32.402Z,72.00
2022-09-06T18:32:58.817Z,70.40
2022-09-06T18:35:25.282Z,70.30
2022-09-06T18:37:51.746Z,70.10
2022-09-06T18:40:18.187Z,70.10
2022-09-06T18:42:44.610Z,69.70
2022-09-06T18:45:11.057Z,71.10
2022-09-06T18:47:37.484Z,70.20
2022-09-06T18:50:03.918Z,70.40
2022-09-06T18:52:30.353Z,70.00
2022-09-06T18:54:56.791Z,70.30
2022-09-06T18:57:23.222Z,69.70
2022-09-06T18:59:49.659Z,69.90
2022-09-06T19:02:16.132Z,69.90
2022-09-06T19:04:42.610Z,71.40
2022-09-06T19:07:09.051Z,70.40
2022-09-06T19:09:35.514Z,70.60
2022-09-06T19:12:01.973Z,70.30
2022-09-06T19:14:28.429Z,70.50
2022-09-06T19:16:54.897Z,71.50
2022-09-06T19:19:21.366Z,70.40
2022-09-06T19:21:47.889Z,70.60
2022-09-06T19:24:14.323Z,70.30
2022-09-06T19:26:40.757Z,70.30
2022-09-06T19:29:07.223Z,70.20
2022-09-06T19:31:33.798Z,70.40
2022-09-06T19:34:00.323Z,71.00
2022-09-06T19:36:26.769Z,70.20
2022-09-06T19:39:02.968Z,70.50
2022-09-06T19:41:30.304Z,71.30
2022-09-06T19:43:56.851Z,71.00
2022-09-06T19:46:23.341Z,71.10
2022-09-06T19:48:49.848Z,70.60
2022-09-06T19:51:16.279Z,70.70
2022-09-06T19:53:42.753Z,71.70
2022-09-06T19:56:09.183Z,70.80
2022-09-06T19:58:35.700Z,70.30
2022-09-06T20:01:02.205Z,70.40
2022-09-06T20:03:28.691Z,70.40
2022-09-06T20:05:55.142Z,70.70
2022-09-06T20:08:21.592Z,70.60
2022-09-06T20:10:48.032Z,70.20
2022-09-06T20:13:14.455Z,71.20
2022-09-06T20:15:40.907Z,70.30
2022-09-06T20:18:07.351Z,70.30
2022-09-06T20:20:33.815Z,70.20
2022-09-06T20:23:00.282Z,70.00
2022-09-06T20:25:26.744Z,71.20
2022-09-06T20:27:53.193Z,70.40
2022-09-06T20:30:19.645Z,71.00
2022-09-06T20:32:48.952Z,70.70
2022-09-06T20:35:15.397Z,70.70
2022-09-06T20:37:41.822Z,70.50
2022-09-06T20:40:08.351Z,71.40
2022-09-06T20:42:34.877Z,70.40
2022-09-06T20:45:01.332Z,70.70
2022-09-06T20:47:27.773Z,71.00
2022-09-06T20:49:54.224Z,70.70
2022-09-06T20:52:20.730Z,70.50
2022-09-06T20:54:47.196Z,72.40
2022-09-06T20:57:13.627Z,71.40
2022-09-06T20:59:40.067Z,70.80
2022-09-06T21:02:06.539Z,70.50
2022-09-06T21:04:33.070Z,70.70
2022-09-06T21:06:59.505Z,70.20
2022-09-06T21:09:25.976Z,70.40
2022-09-06T21:11:52.395Z,70.00
2022-09-06T21:14:18.845Z,70.50
2022-09-06T21:16:45.353Z,70.40
2022-09-06T21:19:11.890Z,70.80
2022-09-06T21:21:38.308Z,70.20
2022-09-06T21:24:04.759Z,70.20
2022-09-06T21:26:31.186Z,70.50
2022-09-06T21:28:57.639Z,70.70
2022-09-06T21:31:24.171Z,70.60
2022-09-06T21:33:50.647Z,70.20
2022-09-06T21:36:17.091Z,70.40
2022-09-06T21:38:43.527Z,70.20
2022-09-06T21:41:09.979Z,70.20
2022-09-06T21:43:36.429Z,70.40
2022-09-06T21:46:02.865Z,70.90
2022-09-06T21:48:29.444Z,70.90
2022-09-06T21:50:56.023Z,70.40
2022-09-06T21:53:22.453Z,70.40
2022-09-06T21:55:48.894Z,70.60
2022-09-06T21:58:15.357Z,70.00
2022-09-06T22:00:41.872Z,70.80
2022-09-06T22:03:08.395Z,70.50
2022-09-06T22:05:34.845Z,70.60
2022-09-06T22:08:01.267Z,70.30
2022-09-06T22:10:27.708Z,70.10
2022-09-06T22:12:54.143Z,70.40
2022-09-06T22:15:20.586Z,70.20
2022-09-06T22:17:47.045Z,70.20
2022-09-06T22:20:13.496Z,70.30
2022-09-06T22:22:39.932Z,70.50
2022-09-06T22:25:06.383Z,70.00
2022-09-06T22:27:32.825Z,70.20
2022-09-06T22:29:59.263Z,70.50
2022-09-06T22:32:25.690Z,71.10
2022-09-06T22:34:52.137Z,70.40
2022-09-06T22:37:18.578Z,70.20
2022-09-06T22:39:45.050Z,70.30
2022-09-06T22:42:11.503Z,70.00
2022-09-06T22:44:37.939Z,70.20
2022-09-06T22:47:04.430Z,70.00
2022-09-06T22:49:30.911Z,70.20
2022-09-06T22:51:57.335Z,70.50
2022-09-06T22:54:23.785Z,70.70
2022-09-06T22:56:50.207Z,70.20
2022-09-06T22:59:16.668Z,70.80
2022-09-06T23:01:43.102Z,70.70
2022-09-06T23:04:09.649Z,70.40
2022-09-06T23:06:36.128Z,70.10
2022-09-06T23:09:02.563Z,70.40
2022-09-06T23:11:29.003Z,70.20
2022-09-06T23:13:55.443Z,70.10
2022-09-06T23:16:21.971Z,70.20
2022-09-06T23:18:48.446Z,70.00
2022-09-06T23:21:14.925Z,70.10
2022-09-06T23:23:41.360Z,70.20
2022-09-06T23:26:07.804Z,70.10
2022-09-06T23:28:34.240Z,70.40
2022-09-06T23:31:00.737Z,70.40
2022-09-06T23:33:27.214Z,70.00
2022-09-06T23:35:53.665Z,70.00
2022-09-06T23:38:20.096Z,70.60
2022-09-06T23:40:46.588Z,70.50
2022-09-06T23:43:13.017Z,70.80
2022-09-06T23:45:39.458Z,70.40
2022-09-06T23:48:05.938Z,70.50
2022-09-06T23:50:32.391Z,70.30
2022-09-06T23:52:58.817Z,69.90
2022-09-06T23:55:25.298Z,70.50
2022-09-06T23:57:51.784Z,70.10
